Time;durP1;ratioP1;P1;durP2;ratioP2;P2;SDS_P1;SDS_P2;PMS_P1;PMS_P2;Temp;Humidity;BMP_temperature;BMP_pressure;BME280_temperature;BME280_humidity;BME280_pressure;Samples;Min_cycle;Max_cycle;Signal;HPM_P1;HPM_P2
2021/01/07 00:00:12;;;;;;;0.55;0.55;;;0.40;99.90;;;;;;5081304;28;20031;-83
2021/01/07 00:02:38;;;;;;;0.40;0.40;;;0.50;99.90;;;;;;5083219;28;20043;-83
2021/01/07 00:05:05;;;;;;;3.28;3.05;;;0.50;99.90;;;;;;5081131;28;20044;-83
2021/01/07 00:07:30;;;;;;;1.25;1.20;;;0.40;99.90;;;;;;5074070;28;20035;-84
2021/01/07 00:09:59;;;;;;;0.43;0.43;;;0.40;99.90;;;;;;5082466;28;20032;-84
2021/01/07 00:12:28;;;;;;;1.33;1.25;;;0.40;99.90;;;;;;5080721;28;20495;-84
2021/01/07 00:14:54;;;;;;;1.02;1.02;;;0.40;99.90;;;;;;5086861;28;20532;-84
2021/01/07 00:17:20;;;;;;;0.60;0.60;;;0.40;99.90;;;;;;5083786;28;20103;-84
2021/01/07 00:19:45;;;;;;;2.67;1.35;;;0.40;99.90;;;;;;5077643;28;20024;-84
2021/01/07 00:22:11;;;;;;;3.83;1.88;;;0.50;99.90;;;;;;5088146;28;20510;-84
2021/01/07 00:24:37;;;;;;;1.25;1.15;;;0.50;99.90;;;;;;5085637;28;20039;-83
2021/01/07 00:27:03;;;;;;;4.65;1.85;;;0.50;99.90;;;;;;5078432;28;20031;-84
2021/01/07 00:29:29;;;;;;;1.48;1.38;;;0.40;99.90;;;;;;5082371;28;20107;-83
2021/01/07 00:31:54;;;;;;;2.10;1.85;;;0.40;99.90;;;;;;5085155;28;20047;-84
2021/01/07 00:34:21;;;;;;;1.55;1.45;;;0.40;99.90;;;;;;5078859;28;20032;-83
2021/01/07 00:36:53;;;;;;;0.40;0.40;;;0.40;99.90;;;;;;5085997;28;20020;-83
2021/01/07 00:39:20;;;;;;;2.42;1.98;;;0.40;99.90;;;;;;5085333;28;20043;-83
2021/01/07 00:42:01;;;;;;;0.10;0.10;;;0.30;99.90;;;;;;5086762;28;20020;-83
2021/01/07 00:44:30;;;;;;;1.58;1.27;;;0.30;99.90;;;;;;5086606;28;20718;-83
2021/01/07 00:47:01;;;;;;;0.40;0.40;;;0.30;99.90;;;;;;5082049;28;20020;-83
2021/01/07 00:49:26;;;;;;;0.70;0.70;;;0.40;99.90;;;;;;5083366;28;20054;-83
2021/01/07 00:51:52;;;;;;;2.72;1.80;;;0.40;99.90;;;;;;5082725;28;20024;-83
2021/01/07 00:54:18;;;;;;;1.77;1.05;;;0.40;99.90;;;;;;5081452;28;20063;-84
2021/01/07 00:56:44;;;;;;;1.98;1.30;;;0.30;99.90;;;;;;5085255;28;20028;-84
2021/01/07 00:59:10;;;;;;;0.30;0.30;;;0.30;99.90;;;;;;5091009;28;20091;-83
2021/01/07 01:01:47;;;;;;;7.03;2.00;;;0.30;99.90;;;;;;5075974;28;20663;-83
2021/01/07 01:04:16;;;;;;;7.75;1.77;;;0.30;99.90;;;;;;5084544;28;20051;-83
2021/01/07 01:06:43;;;;;;;1.33;1.23;;;0.30;99.90;;;;;;5091306;28;20140;-83
2021/01/07 01:09:12;;;;;;;;;;;0.30;99.90;;;;;;5082256;28;20675;-83
2021/01/07 01:11:50;;;;;;;0.20;0.20;;;0.30;99.90;;;;;;5076815;28;20319;-83
2021/01/07 01:14:22;;;;;;;9.32;1.38;;;0.30;99.90;;;;;;5076887;28;20041;-83
2021/01/07 01:16:49;;;;;;;0.93;0.93;;;0.30;99.90;;;;;;5087739;28;20841;-83
2021/01/07 01:19:18;;;;;;;2.92;0.90;;;0.20;99.90;;;;;;5089522;28;20028;-83
2021/01/07 01:21:45;;;;;;;0.52;0.50;;;0.20;99.90;;;;;;5088899;28;20027;-84
2021/01/07 01:24:11;;;;;;;0.25;0.25;;;0.20;99.90;;;;;;5086768;28;20020;-83
2021/01/07 01:26:37;;;;;;;0.63;0.63;;;0.20;99.90;;;;;;5085318;28;20555;-83
2021/01/07 01:29:03;;;;;;;1.00;1.00;;;0.20;99.90;;;;;;5082985;28;20036;-83
2021/01/07 01:31:29;;;;;;;3.10;1.98;;;0.20;99.90;;;;;;5087605;28;20396;-83
2021/01/07 01:33:55;;;;;;;1.20;1.10;;;0.30;99.90;;;;;;5079873;28;20051;-83
2021/01/07 01:36:28;;;;;;;0.80;0.80;;;0.30;99.90;;;;;;5084279;28;20475;-83
2021/01/07 01:38:56;;;;;;;1.00;1.00;;;0.30;99.90;;;;;;5074102;28;20040;-83
2021/01/07 01:41:23;;;;;;;2.17;1.52;;;0.40;99.90;;;;;;5088894;28;20028;-83
2021/01/07 01:43:49;;;;;;;;;;;0.40;99.90;;;;;;5081675;28;20033;-83
2021/01/07 01:46:15;;;;;;;0.57;0.57;;;0.40;99.90;;;;;;5069526;28;19918;-83
2021/01/07 01:48:41;;;;;;;0.20;0.20;;;0.40;99.90;;;;;;5087745;28;20028;-83
2021/01/07 01:51:08;;;;;;;1.25;0.40;;;0.40;99.90;;;;;;5086517;28;20044;-83
2021/01/07 01:53:34;;;;;;;0.20;0.20;;;0.50;99.90;;;;;;5084914;28;20058;-83
2021/01/07 01:56:00;;;;;;;0.40;0.40;;;0.50;99.90;;;;;;5088349;28;20028;-84
2021/01/07 01:58:28;;;;;;;0.82;0.82;;;0.60;99.90;;;;;;5077456;28;20035;-84
2021/01/07 02:00:54;;;;;;;1.55;1.17;;;0.60;99.90;;;;;;5082904;28;20046;-83
2021/01/07 02:03:19;;;;;;;0.25;0.25;;;0.50;99.90;;;;;;5075036;28;20679;-84
2021/01/07 02:05:46;;;;;;;1.20;1.10;;;0.50;99.90;;;;;;5081771;28;20024;-84
2021/01/07 02:08:15;;;;;;;0.60;0.60;;;0.50;99.90;;;;;;5088012;28;20081;-84
2021/01/07 02:10:41;;;;;;;2.03;0.85;;;0.50;99.90;;;;;;5077237;28;20078;-83
2021/01/07 02:13:16;;;;;;;0.40;0.40;;;0.50;99.90;;;;;;5077888;28;20081;-83
2021/01/07 02:15:48;;;;;;;1.98;1.88;;;0.20;99.90;;;;;;5077496;28;20056;-83
2021/01/07 02:18:14;;;;;;;0.50;0.50;;;0.20;99.90;;;;;;5082139;28;20051;-84
2021/01/07 02:20:46;;;;;;;0.43;0.43;;;0.20;99.90;;;;;;5085633;28;20056;-85
2021/01/07 02:23:13;;;;;;;0.32;0.32;;;0.20;99.90;;;;;;5082145;28;20017;-86
2021/01/07 02:25:39;;;;;;;0.20;0.20;;;0.20;99.90;;;;;;5074026;28;20474;-85
2021/01/07 02:28:11;;;;;;;1.20;1.20;;;0.20;99.90;;;;;;5078378;28;20024;-85
2021/01/07 02:30:37;;;;;;;1.35;0.65;;;0.20;99.90;;;;;;5077656;28;20120;-85
2021/01/07 02:33:03;;;;;;;9.23;1.55;;;0.20;99.90;;;;;;5077153;28;20107;-86
2021/01/07 02:35:28;;;;;;;1.63;1.55;;;0.20;99.90;;;;;;5085520;28;20036;-86
2021/01/07 02:37:54;;;;;;;0.28;0.28;;;0.10;99.90;;;;;;5069712;28;20027;-86
2021/01/07 02:40:23;;;;;;;0.65;0.65;;;0.00;99.90;;;;;;5079691;28;20028;-86
2021/01/07 02:42:56;;;;;;;4.72;1.70;;;0.00;99.90;;;;;;5077266;28;20028;-86
2021/01/07 02:45:35;;;;;;;1.08;0.90;;;0.00;99.90;;;;;;5081376;28;20027;-86
2021/01/07 02:48:04;;;;;;;0.65;0.65;;;0.00;99.90;;;;;;5088840;28;20085;-86
2021/01/07 02:50:30;;;;;;;0.38;0.38;;;0.00;99.90;;;;;;5088103;28;20066;-86
2021/01/07 02:53:00;;;;;;;0.57;0.57;;;0.00;99.90;;;;;;5083326;28;20551;-86
2021/01/07 02:55:25;;;;;;;0.40;0.40;;;0.00;99.90;;;;;;5087515;28;20119;-85
2021/01/07 02:57:51;;;;;;;0.50;0.50;;;-0.10;99.90;;;;;;5085478;28;20154;-84
2021/01/07 03:00:18;;;;;;;0.10;0.10;;;0.00;99.90;;;;;;5081029;28;20024;-85
2021/01/07 03:02:43;;;;;;;0.80;0.80;;;0.10;99.90;;;;;;5078622;28;20437;-85
2021/01/07 03:05:10;;;;;;;0.30;0.30;;;0.00;99.90;;;;;;5086858;28;20024;-84
2021/01/07 03:07:36;;;;;;;2.03;1.50;;;0.10;99.90;;;;;;5085211;28;20022;-85
2021/01/07 03:10:05;;;;;;;1.08;1.08;;;0.00;99.90;;;;;;5070627;28;20028;-85
2021/01/07 03:12:31;;;;;;;3.70;1.17;;;0.10;99.90;;;;;;5074691;28;20019;-84
2021/01/07 03:14:57;;;;;;;1.55;1.00;;;0.10;99.90;;;;;;5083176;28;20035;-84
2021/01/07 03:17:22;;;;;;;0.82;0.82;;;0.10;99.90;;;;;;5087636;28;20034;-84
2021/01/07 03:19:48;;;;;;;0.45;0.45;;;0.10;99.90;;;;;;5088707;28;20119;-84
2021/01/07 03:22:14;;;;;;;0.20;0.20;;;0.10;99.90;;;;;;5081481;28;20016;-84
2021/01/07 03:24:40;;;;;;;0.65;0.65;;;0.10;99.90;;;;;;5088253;28;20089;-84
2021/01/07 03:27:05;;;;;;;12.77;3.72;;;0.10;99.90;;;;;;5085686;28;20034;-84
2021/01/07 03:29:31;;;;;;;1.33;1.08;;;0.10;99.90;;;;;;5077041;28;20887;-84
2021/01/07 03:31:57;;;;;;;0.30;0.30;;;0.20;99.90;;;;;;5085362;28;20028;-84
2021/01/07 03:34:23;;;;;;;0.82;0.82;;;0.40;99.90;;;;;;5074706;28;20036;-84
2021/01/07 03:36:49;;;;;;;0.80;0.80;;;0.40;99.90;;;;;;5070207;28;20814;-84
2021/01/07 03:39:15;;;;;;;0.10;0.10;;;0.40;99.90;;;;;;5080021;28;20035;-84
2021/01/07 03:41:42;;;;;;;0.30;0.30;;;0.40;99.90;;;;;;5070850;28;20115;-84
2021/01/07 03:44:08;;;;;;;0.30;0.30;;;0.40;99.90;;;;;;5080357;28;20032;-84
2021/01/07 03:46:34;;;;;;;0.20;0.20;;;0.40;99.90;;;;;;5087881;28;20032;-84
2021/01/07 03:49:00;;;;;;;1.27;0.73;;;0.40;99.90;;;;;;5086787;28;20042;-84
2021/01/07 03:51:26;;;;;;;0.30;0.30;;;0.30;99.90;;;;;;5085267;28;20111;-84
2021/01/07 03:53:51;;;;;;;0.77;0.77;;;0.30;99.90;;;;;;5087315;28;20032;-84
2021/01/07 03:56:17;;;;;;;1.85;1.75;;;0.30;99.90;;;;;;5078740;28;20543;-84
2021/01/07 03:58:43;;;;;;;0.55;0.55;;;0.20;99.90;;;;;;5080998;28;20032;-84
2021/01/07 04:01:09;;;;;;;1.63;1.55;;;0.20;99.90;;;;;;5087932;28;20491;-84
2021/01/07 04:03:34;;;;;;;2.25;2.05;;;0.20;99.90;;;;;;5072409;28;20032;-84
2021/01/07 04:06:00;;;;;;;0.85;0.85;;;0.10;99.90;;;;;;5087374;28;20024;-83
2021/01/07 04:08:26;;;;;;;9.68;1.42;;;0.10;99.90;;;;;;5074118;28;20552;-83
2021/01/07 04:10:52;;;;;;;0.43;0.43;;;0.20;99.90;;;;;;5088553;28;20028;-83
2021/01/07 04:13:19;;;;;;;0.40;0.40;;;0.20;99.90;;;;;;5083738;28;20024;-84
2021/01/07 04:15:48;;;;;;;0.40;0.40;;;0.20;99.90;;;;;;5071229;28;20495;-83
2021/01/07 04:18:17;;;;;;;0.75;0.75;;;0.10;99.90;;;;;;5085483;28;20043;-84
2021/01/07 04:20:56;;;;;;;0.50;0.50;;;0.20;99.90;;;;;;5088286;28;20019;-84
2021/01/07 04:23:34;;;;;;;1.40;1.27;;;0.10;99.90;;;;;;5077384;28;20032;-85
2021/01/07 04:26:09;;;;;;;0.20;0.20;;;0.00;99.90;;;;;;5074393;28;20064;-84
2021/01/07 04:28:35;;;;;;;0.20;0.20;;;0.00;99.90;;;;;;5082506;28;20507;-84
2021/01/07 04:31:01;;;;;;;0.60;0.60;;;0.10;99.90;;;;;;5079769;28;20069;-85
2021/01/07 04:33:27;;;;;;;0.55;0.55;;;0.20;99.90;;;;;;5077079;28;20105;-85
2021/01/07 04:35:52;;;;;;;0.30;0.30;;;0.20;99.90;;;;;;5081619;28;20095;-84
2021/01/07 04:38:18;;;;;;;0.30;0.30;;;0.30;99.90;;;;;;5082984;28;20499;-84
2021/01/07 04:40:44;;;;;;;3.65;1.27;;;0.30;99.90;;;;;;5083926;28;20620;-84
2021/01/07 04:43:13;;;;;;;0.88;0.73;;;0.30;99.90;;;;;;5078001;28;20103;-85
2021/01/07 04:45:44;;;;;;;0.90;0.90;;;0.30;99.90;;;;;;5080819;28;20089;-86
2021/01/07 04:48:14;;;;;;;0.60;0.47;;;0.20;99.90;;;;;;5087737;28;20583;-90
2021/01/07 04:50:46;;;;;;;0.75;0.75;;;0.10;99.90;;;;;;5082374;28;20108;-85
2021/01/07 04:53:16;;;;;;;1.27;1.27;;;0.10;99.90;;;;;;5082282;28;20032;-85
2021/01/07 04:55:45;;;;;;;1.02;0.98;;;0.00;99.90;;;;;;5084459;28;20039;-85
2021/01/07 04:58:14;;;;;;;0.35;0.35;;;0.00;99.90;;;;;;5082565;28;20077;-85
2021/01/07 05:00:41;;;;;;;0.20;0.20;;;-0.10;99.90;;;;;;5079178;28;20024;-85
2021/01/07 05:03:06;;;;;;;0.30;0.30;;;0.00;99.90;;;;;;5074871;28;20024;-85
2021/01/07 05:05:35;;;;;;;0.30;0.30;;;0.10;99.90;;;;;;5089613;28;20131;-85
2021/01/07 05:08:04;;;;;;;0.95;0.95;;;0.10;99.90;;;;;;5081019;28;20103;-85
2021/01/07 05:10:30;;;;;;;1.25;1.15;;;0.10;99.90;;;;;;5083122;28;20020;-85
2021/01/07 05:13:06;;;;;;;0.20;0.20;;;0.00;99.90;;;;;;5080404;28;20028;-86
2021/01/07 05:15:42;;;;;;;0.20;0.20;;;0.00;99.90;;;;;;5075409;28;20271;-85
2021/01/07 05:18:15;;;;;;;0.93;0.93;;;0.00;99.90;;;;;;5083265;28;20618;-85
2021/01/07 05:20:54;;;;;;;0.80;0.80;;;-0.10;99.90;;;;;;5087309;28;20107;-86
2021/01/07 05:23:33;;;;;;;0.55;0.55;;;-0.10;99.90;;;;;;5083576;28;20053;-86
2021/01/07 05:26:17;;;;;;;0.40;0.40;;;-0.10;99.90;;;;;;5087668;28;20107;-86
2021/01/07 05:28:45;;;;;;;0.60;0.60;;;-0.10;99.90;;;;;;5079503;28;20036;-85
2021/01/07 05:31:11;;;;;;;1.27;1.10;;;-0.10;99.90;;;;;;5084783;28;20055;-83
2021/01/07 05:33:40;;;;;;;0.20;0.20;;;-0.20;99.90;;;;;;5078491;28;20035;-83
2021/01/07 05:36:21;;;;;;;0.15;0.15;;;-0.20;99.90;;;;;;5069184;28;20291;-83
2021/01/07 05:38:47;;;;;;;0.20;0.20;;;-0.30;99.90;;;;;;5078047;28;20112;-84
2021/01/07 05:41:14;;;;;;;0.20;0.20;;;-0.40;99.90;;;;;;5089225;28;20554;-87
2021/01/07 05:43:57;;;;;;;0.20;0.20;;;-0.60;99.90;;;;;;5078828;28;20028;-87
2021/01/07 05:46:29;;;;;;;0.70;0.70;;;-0.80;99.90;;;;;;5084347;28;20379;-89
2021/01/07 05:49:02;;;;;;;0.43;0.43;;;-1.00;99.90;;;;;;5078946;28;20028;-88
2021/01/07 05:51:30;;;;;;;0.10;0.10;;;-1.10;99.90;;;;;;5084345;28;20100;-88
2021/01/07 05:54:14;;;;;;;0.63;0.63;;;-1.10;99.90;;;;;;5080450;28;20070;-87
2021/01/07 05:56:45;;;;;;;3.20;1.45;;;-1.10;99.90;;;;;;5079136;28;20487;-87
2021/01/07 05:59:11;;;;;;;0.73;0.73;;;-1.10;99.90;;;;;;5088823;28;20115;-88
2021/01/07 06:01:41;;;;;;;0.40;0.40;;;-1.10;99.90;;;;;;5084219;28;20463;-87
2021/01/07 06:04:09;;;;;;;0.32;0.32;;;-1.40;99.90;;;;;;5087535;28;20427;-87
2021/01/07 06:06:36;;;;;;;0.70;0.70;;;-1.50;99.90;;;;;;5083883;28;20034;-88
2021/01/07 06:09:03;;;;;;;0.22;0.22;;;-1.70;99.90;;;;;;5085038;28;20020;-91
2021/01/07 06:11:30;;;;;;;0.82;0.73;;;-1.70;99.90;;;;;;5082532;28;20499;-91
2021/01/07 06:14:03;;;;;;;0.10;0.10;;;-1.80;99.90;;;;;;5089134;28;20035;-89
2021/01/07 06:16:36;;;;;;;1.17;1.17;;;-1.60;99.90;;;;;;5080239;28;20416;-89
2021/01/07 06:19:33;;;;;;;0.57;0.57;;;-1.60;99.90;;;;;;5086400;28;20459;-88
2021/01/07 06:22:08;;;;;;;0.10;0.10;;;-1.60;99.90;;;;;;5070639;28;20384;-89
2021/01/07 06:24:44;;;;;;;1.20;1.15;;;-1.50;99.90;;;;;;5086326;28;20013;-88
2021/01/07 06:27:30;;;;;;;0.43;0.43;;;-1.60;99.90;;;;;;5087754;28;20025;-88
2021/01/07 06:30:10;;;;;;;2.45;2.25;;;-1.70;99.90;;;;;;5083728;28;20100;-85
2021/01/07 06:32:40;;;;;;;0.22;0.22;;;-1.90;99.90;;;;;;5073780;28;20522;-86
2021/01/07 06:35:10;;;;;;;0.30;0.30;;;-2.00;99.90;;;;;;5074110;28;20031;-85
2021/01/07 06:37:40;;;;;;;1.00;1.00;;;-1.90;99.90;;;;;;5071560;28;20128;-86
2021/01/07 06:40:08;;;;;;;0.20;0.20;;;-1.80;99.90;;;;;;5087998;28;20016;-86
2021/01/07 06:42:38;;;;;;;3.15;1.85;;;-2.00;99.90;;;;;;5095525;28;20391;-85
2021/01/07 06:45:06;;;;;;;0.65;0.65;;;-1.90;99.90;;;;;;5072773;28;20020;-87
2021/01/07 06:47:32;;;;;;;0.47;0.47;;;-2.10;99.90;;;;;;5083083;28;20023;-86
2021/01/07 06:50:00;;;;;;;7.97;0.90;;;-2.00;99.90;;;;;;5090827;28;20039;-88
2021/01/07 06:52:26;;;;;;;0.63;0.63;;;-2.00;99.90;;;;;;5085555;28;20025;-87
2021/01/07 06:54:57;;;;;;;0.20;0.20;;;-2.10;99.90;;;;;;5078950;28;20028;-87
2021/01/07 06:57:23;;;;;;;0.10;0.10;;;-2.20;99.90;;;;;;5090883;28;20059;-87
2021/01/07 06:59:58;;;;;;;0.47;0.47;;;-2.20;99.90;;;;;;5089822;28;20116;-87
2021/01/07 07:02:25;;;;;;;2.05;1.02;;;-2.20;99.90;;;;;;5075666;28;20023;-88
2021/01/07 07:05:09;;;;;;;3.40;1.90;;;-2.30;99.90;;;;;;5087824;28;20484;-87
2021/01/07 07:07:38;;;;;;;0.98;0.98;;;-2.20;99.90;;;;;;5075848;28;20032;-87
2021/01/07 07:10:19;;;;;;;0.40;0.40;;;-2.50;99.90;;;;;;5081504;28;20031;-88
2021/01/07 07:12:49;;;;;;;0.47;0.47;;;-2.20;99.90;;;;;;5076441;28;20024;-87
2021/01/07 07:15:25;;;;;;;0.73;0.73;;;-2.20;99.90;;;;;;5083831;28;20032;-87
2021/01/07 07:17:55;;;;;;;0.52;0.52;;;-2.10;99.90;;;;;;5088792;28;20028;-87
2021/01/07 07:20:26;;;;;;;0.20;0.20;;;-2.00;99.90;;;;;;5088254;28;20024;-88
2021/01/07 07:22:52;;;;;;;0.20;0.20;;;-2.10;99.90;;;;;;5075669;28;20112;-88
2021/01/07 07:25:23;;;;;;;0.52;0.52;;;-2.00;99.90;;;;;;5088517;28;20048;-88
2021/01/07 07:27:49;;;;;;;0.30;0.30;;;-2.00;99.90;;;;;;5086358;28;20040;-88
2021/01/07 07:30:28;;;;;;;0.15;0.15;;;-1.80;99.90;;;;;;5076514;28;20031;-87
2021/01/07 07:32:57;;;;;;;0.20;0.20;;;-1.70;99.90;;;;;;5088527;28;20051;-87
2021/01/07 07:35:28;;;;;;;0.20;0.20;;;-1.90;99.90;;;;;;5076437;28;20028;-89
2021/01/07 07:37:55;;;;;;;0.82;0.82;;;-2.10;99.90;;;;;;5086302;28;20027;-88
2021/01/07 07:40:38;;;;;;;0.35;0.35;;;-2.20;99.90;;;;;;5075481;28;20138;-89
2021/01/07 07:43:06;;;;;;;0.55;0.50;;;-2.10;99.90;;;;;;5087076;28;20024;-88
2021/01/07 07:45:33;;;;;;;2.33;2.20;;;-2.20;99.90;;;;;;5076327;28;20027;-86
2021/01/07 07:48:00;;;;;;;0.30;0.30;;;-2.10;99.90;;;;;;5077145;28;20519;-87
2021/01/07 07:50:28;;;;;;;0.10;0.10;;;-1.90;99.90;;;;;;5072009;28;20044;-86
2021/01/07 07:53:14;;;;;;;7.03;4.47;;;-1.80;99.90;;;;;;5076547;28;20021;-86
2021/01/07 07:55:41;;;;;;;8.50;1.52;;;-1.90;99.90;;;;;;5094216;28;20027;-86
2021/01/07 07:58:15;;;;;;;0.30;0.30;;;-1.60;99.90;;;;;;5090813;28;20101;-88
2021/01/07 08:00:55;;;;;;;0.73;0.73;;;-0.90;99.90;;;;;;5085221;28;20032;-87
2021/01/07 08:03:26;;;;;;;0.15;0.15;;;-0.30;99.90;;;;;;5086746;28;20074;-87
2021/01/07 08:05:53;;;;;;;0.90;0.90;;;0.80;99.90;;;;;;5092314;28;20028;-87
2021/01/07 08:08:26;;;;;;;0.63;0.63;;;1.20;99.90;;;;;;5092922;28;20070;-89
2021/01/07 08:10:53;;;;;;;0.17;0.17;;;2.30;99.90;;;;;;5078258;28;20055;-88
2021/01/07 08:13:20;;;;;;;0.65;0.65;;;3.20;99.90;;;;;;5087779;28;20514;-88
2021/01/07 08:15:47;;;;;;;;;;;3.70;99.90;;;;;;5089223;28;20102;-88
2021/01/07 08:18:13;;;;;;;;;;;4.60;99.90;;;;;;5093473;28;19955;-86
2021/01/07 08:20:39;;;;;;;0.70;0.70;;;4.70;99.90;;;;;;5089563;28;19913;-88
2021/01/07 08:23:11;;;;;;;2.75;2.55;;;5.60;99.90;;;;;;5081879;28;20093;-89
2021/01/07 08:25:40;;;;;;;0.30;0.30;;;5.40;99.90;;;;;;5091189;28;20040;-88
2021/01/07 08:28:20;;;;;;;1.00;0.90;;;5.60;99.90;;;;;;5080638;28;20016;-88
2021/01/07 08:30:52;;;;;;;1.55;1.33;;;5.60;99.90;;;;;;5092544;28;20020;-88
2021/01/07 08:33:21;;;;;;;0.20;0.20;;;5.50;99.90;;;;;;5092316;28;20832;-88
2021/01/07 08:35:47;;;;;;;0.82;0.82;;;7.30;99.90;;;;;;5092226;28;20020;-88
2021/01/07 08:38:27;;;;;;;1.35;1.05;;;7.60;99.90;;;;;;5091042;28;20024;-87
2021/01/07 08:41:14;;;;;;;0.30;0.30;;;8.50;99.90;;;;;;5092407;28;20115;-87
2021/01/07 08:43:41;;;;;;;0.40;0.40;;;8.90;99.90;;;;;;5076997;28;20024;-87
2021/01/07 08:46:19;;;;;;;0.25;0.25;;;8.00;99.90;;;;;;5079331;28;20673;-87
2021/01/07 08:49:00;;;;;;;3.83;1.17;;;8.60;99.90;;;;;;5078461;28;20559;-87
2021/01/07 08:51:25;;;;;;;0.73;0.73;;;7.60;99.90;;;;;;5089566;28;20534;-87
2021/01/07 08:53:55;;;;;;;0.10;0.10;;;7.80;99.90;;;;;;5090896;28;20020;-86
2021/01/07 08:56:32;;;;;;;0.60;0.60;;;9.00;99.90;;;;;;5090912;28;20048;-87
2021/01/07 08:59:19;;;;;;;1.88;1.08;;;8.60;99.90;;;;;;5076593;28;20105;-87
2021/01/07 09:02:04;;;;;;;1.23;0.82;;;8.90;99.90;;;;;;5090564;28;20028;-86
2021/01/07 09:04:32;;;;;;;0.50;0.50;;;10.60;99.90;;;;;;5090577;28;20035;-87
2021/01/07 09:06:58;;;;;;;3.72;0.65;;;12.20;99.90;;;;;;5088411;28;20020;-86
2021/01/07 09:09:25;;;;;;;1.25;0.75;;;10.10;99.90;;;;;;5090777;28;20115;-86
2021/01/07 09:12:18;;;;;;;0.10;0.10;;;11.10;99.90;;;;;;5090220;28;20484;-86
2021/01/07 09:14:46;;;;;;;0.10;0.10;;;11.20;99.90;;;;;;5090523;28;20031;-86
2021/01/07 09:17:12;;;;;;;0.68;0.68;;;9.00;99.90;;;;;;5088978;28;20028;-86
2021/01/07 09:19:38;;;;;;;2.33;2.13;;;9.80;99.90;;;;;;5088758;28;20042;-86
2021/01/07 09:22:04;;;;;;;1.92;1.65;;;11.40;99.90;;;;;;5088863;28;20020;-86
2021/01/07 09:24:37;;;;;;;0.13;0.13;;;10.60;99.90;;;;;;5084012;28;20082;-86
2021/01/07 09:27:11;;;;;;;0.30;0.30;;;10.60;99.90;;;;;;5083129;28;20067;-85
2021/01/07 09:29:37;;;;;;;0.40;0.40;;;10.10;99.90;;;;;;5086667;28;20064;-86
2021/01/07 09:32:04;;;;;;;2.53;0.95;;;10.00;99.90;;;;;;5088585;28;20032;-86
2021/01/07 09:34:30;;;;;;;;;;;8.70;99.90;;;;;;5090123;28;20051;-86
2021/01/07 09:37:02;;;;;;;4.80;1.57;;;8.90;99.90;;;;;;5088342;28;19912;-86
2021/01/07 09:39:28;;;;;;;1.20;1.15;;;8.60;99.90;;;;;;5089536;28;20491;-86
2021/01/07 09:41:54;;;;;;;0.30;0.30;;;8.60;99.90;;;;;;5089843;28;20019;-86
2021/01/07 09:44:19;;;;;;;0.15;0.15;;;9.00;99.90;;;;;;5089576;28;20042;-86
2021/01/07 09:46:45;;;;;;;0.30;0.30;;;7.50;99.90;;;;;;5089862;28;20383;-85
2021/01/07 09:49:11;;;;;;;1.23;1.03;;;7.40;99.90;;;;;;5056955;28;875726;-86
2021/01/07 09:51:37;;;;;;;0.95;0.95;;;8.80;99.90;;;;;;5090592;28;20028;-86
2021/01/07 09:54:03;;;;;;;1.13;0.80;;;9.50;99.90;;;;;;5090485;28;20101;-86
2021/01/07 09:56:28;;;;;;;1.17;1.10;;;9.90;99.90;;;;;;5090514;28;20032;-86
2021/01/07 09:58:54;;;;;;;0.77;0.77;;;9.10;99.90;;;;;;5090012;28;20024;-86
2021/01/07 10:01:20;;;;;;;0.65;0.65;;;9.60;99.90;;;;;;5089927;28;20032;-86
2021/01/07 10:03:45;;;;;;;0.52;0.52;;;9.40;99.90;;;;;;5090273;28;20759;-85
2021/01/07 10:06:11;;;;;;;3.30;1.17;;;8.60;99.90;;;;;;5090021;28;20403;-86
2021/01/07 10:08:37;;;;;;;1.40;1.30;;;8.20;99.90;;;;;;5089139;28;20487;-86
2021/01/07 10:11:03;;;;;;;0.20;0.20;;;7.90;99.90;;;;;;5090387;28;20024;-86
2021/01/07 10:13:29;;;;;;;1.17;1.08;;;8.60;99.90;;;;;;5090186;28;20105;-85
2021/01/07 10:15:54;;;;;;;0.38;0.38;;;8.60;99.90;;;;;;5090239;28;20047;-86
2021/01/07 10:18:20;;;;;;;0.60;0.60;;;8.80;99.90;;;;;;5089335;28;20103;-85
2021/01/07 10:20:46;;;;;;;0.38;0.38;;;7.60;99.90;;;;;;5090423;28;20020;-85
2021/01/07 10:23:16;;;;;;;1.75;1.65;;;7.80;99.90;;;;;;5090364;28;20103;-85
2021/01/07 10:25:44;;;;;;;0.90;0.90;;;8.40;99.90;;;;;;5090279;28;20070;-85
2021/01/07 10:28:10;;;;;;;1.35;1.02;;;8.90;99.90;;;;;;5088864;28;20505;-86
2021/01/07 10:30:37;;;;;;;0.15;0.15;;;8.20;99.90;;;;;;5090378;28;20099;-85
2021/01/07 10:33:03;;;;;;;0.28;0.28;;;7.70;99.90;;;;;;5074326;28;20403;-87
2021/01/07 10:35:29;;;;;;;0.50;0.50;;;7.80;99.90;;;;;;5086313;28;20044;-87
2021/01/07 10:37:59;;;;;;;0.85;0.85;;;8.00;99.90;;;;;;5089727;28;20024;-86
2021/01/07 10:40:31;;;;;;;1.30;1.27;;;7.90;99.90;;;;;;5089570;28;20109;-85
2021/01/07 10:42:58;;;;;;;0.10;0.10;;;7.40;99.90;;;;;;5088328;28;20085;-85
2021/01/07 10:45:25;;;;;;;1.40;1.40;;;7.50;99.90;;;;;;5089625;28;20545;-86
2021/01/07 10:47:54;;;;;;;0.80;0.80;;;9.00;99.90;;;;;;5089909;28;20020;-85
2021/01/07 10:50:27;;;;;;;0.73;0.73;;;8.10;99.90;;;;;;5089300;28;20043;-85
2021/01/07 10:53:11;;;;;;;1.17;1.15;;;8.70;99.90;;;;;;5089509;28;20056;-85
2021/01/07 10:55:57;;;;;;;1.08;1.08;;;8.10;99.90;;;;;;5076212;28;20099;-86
2021/01/07 10:59:01;;;;;;;0.85;0.85;;;9.30;99.90;;;;;;5088127;28;20515;-85
2021/01/07 11:01:38;;;;;;;0.30;0.30;;;8.30;99.90;;;;;;5089278;28;20765;-85
2021/01/07 11:04:44;;;;;;;1.13;1.13;;;8.30;99.90;;;;;;5089654;28;20071;-85
2021/01/07 11:07:33;;;;;;;;;;;8.40;99.90;;;;;;5070695;28;20392;-86
2021/01/07 11:10:06;;;;;;;0.70;0.70;;;8.30;99.90;;;;;;5079448;28;19955;-85
2021/01/07 11:12:58;;;;;;;0.50;0.50;;;8.50;99.90;;;;;;5089103;28;20046;-86
2021/01/07 11:15:28;;;;;;;0.57;0.57;;;8.00;99.90;;;;;;5089191;28;20024;-85
2021/01/07 11:18:07;;;;;;;0.35;0.35;;;7.30;99.90;;;;;;5089495;28;20020;-86
2021/01/07 11:20:36;;;;;;;0.40;0.40;;;7.20;99.90;;;;;;5089005;28;20487;-85
2021/01/07 11:23:05;;;;;;;0.35;0.35;;;6.80;99.90;;;;;;5089380;28;20146;-86
2021/01/07 11:25:32;;;;;;;0.70;0.70;;;7.70;99.90;;;;;;5089019;28;20395;-85
2021/01/07 11:28:00;;;;;;;0.10;0.10;;;7.60;99.90;;;;;;5089371;28;20026;-85
2021/01/07 11:30:27;;;;;;;0.93;0.63;;;8.00;99.90;;;;;;5089188;28;20032;-90
2021/01/07 11:32:53;;;;;;;0.20;0.20;;;7.90;99.90;;;;;;5074612;28;20032;-86
2021/01/07 11:35:19;;;;;;;2.08;1.65;;;8.10;99.90;;;;;;5084868;28;20549;-86
2021/01/07 11:37:51;;;;;;;1.20;1.08;;;7.20;99.90;;;;;;5088750;28;20028;-85
2021/01/07 11:40:31;;;;;;;0.20;0.20;;;8.10;99.90;;;;;;5075349;28;20028;-86
2021/01/07 11:43:15;;;;;;;0.43;0.43;;;7.40;99.90;;;;;;5087571;28;20127;-86
2021/01/07 11:45:45;;;;;;;0.47;0.47;;;7.70;99.90;;;;;;5088809;28;20028;-86
2021/01/07 11:48:14;;;;;;;0.15;0.15;;;8.30;99.90;;;;;;5089114;28;20016;-86
2021/01/07 11:50:43;;;;;;;0.17;0.17;;;8.00;99.90;;;;;;5088783;28;20052;-87
2021/01/07 11:53:09;;;;;;;0.30;0.30;;;8.50;99.90;;;;;;5088881;28;20058;-86
2021/01/07 11:55:36;;;;;;;0.10;0.10;;;8.00;99.90;;;;;;5082414;28;20027;-86
2021/01/07 11:58:03;;;;;;;0.52;0.52;;;7.20;99.90;;;;;;5081647;28;20078;-86
2021/01/07 12:00:29;;;;;;;;;;;8.40;99.90;;;;;;5089416;28;20887;-86
2021/01/07 12:02:56;;;;;;;0.10;0.10;;;5.40;99.90;;;;;;5087634;28;19959;-86
2021/01/07 12:05:24;;;;;;;0.47;0.35;;;4.20;99.90;;;;;;5088981;28;20073;-86
2021/01/07 12:08:08;;;;;;;0.63;0.63;;;4.30;99.90;;;;;;5088989;28;20073;-86
2021/01/07 12:10:40;;;;;;;0.30;0.30;;;4.00;99.90;;;;;;5083668;28;20036;-86
2021/01/07 12:13:24;;;;;;;0.63;0.63;;;4.00;99.90;;;;;;5079465;28;20028;-86
2021/01/07 12:15:51;;;;;;;0.50;0.50;;;4.20;99.90;;;;;;5073259;28;20051;-86
2021/01/07 12:18:17;;;;;;;0.10;0.10;;;4.30;99.90;;;;;;5088748;28;20050;-86
2021/01/07 12:20:46;;;;;;;0.10;0.10;;;4.00;99.90;;;;;;5087109;28;20086;-86
2021/01/07 12:23:13;;;;;;;0.50;0.43;;;3.90;99.90;;;;;;5087552;28;20403;-86
2021/01/07 12:25:41;;;;;;;0.10;0.10;;;3.90;99.90;;;;;;5088707;28;20038;-86
2021/01/07 12:28:14;;;;;;;0.85;0.85;;;3.50;99.90;;;;;;5088449;28;20016;-86
2021/01/07 12:30:46;;;;;;;1.92;1.25;;;3.70;99.90;;;;;;5088661;28;20024;-86
2021/01/07 12:33:35;;;;;;;0.55;0.55;;;3.70;99.90;;;;;;5087234;28;20020;-86
2021/01/07 12:36:22;;;;;;;0.50;0.50;;;3.90;99.90;;;;;;5087198;28;20035;-86
2021/01/07 12:39:07;;;;;;;0.10;0.10;;;4.20;99.90;;;;;;5088236;28;20028;-85
2021/01/07 12:41:48;;;;;;;0.95;0.95;;;4.20;99.90;;;;;;5089217;28;20107;-85
2021/01/07 12:44:16;;;;;;;0.32;0.32;;;3.90;99.90;;;;;;5092201;28;20070;-86
2021/01/07 12:46:47;;;;;;;6.20;2.20;;;4.20;99.90;;;;;;5090572;28;20028;-85
2021/01/07 12:49:17;;;;;;;0.25;0.25;;;4.10;99.90;;;;;;5092049;28;20073;-86
2021/01/07 12:51:44;;;;;;;0.38;0.38;;;4.40;99.90;;;;;;5076117;28;20033;-86
2021/01/07 12:54:11;;;;;;;0.93;0.90;;;4.60;99.90;;;;;;5090370;28;20077;-86
2021/01/07 12:56:42;;;;;;;;;;;4.20;99.90;;;;;;5092120;28;20032;-86
2021/01/07 12:59:11;;;;;;;1.17;1.10;;;3.80;99.90;;;;;;5091482;28;20375;-86
2021/01/07 13:01:52;;;;;;;0.95;0.95;;;4.10;99.90;;;;;;5077337;28;20029;-85
2021/01/07 13:04:32;;;;;;;0.57;0.57;;;4.30;99.90;;;;;;5079795;28;20022;-85
2021/01/07 13:07:00;;;;;;;0.28;0.28;;;4.40;99.90;;;;;;5091485;28;20518;-86
2021/01/07 13:09:29;;;;;;;0.13;0.13;;;4.40;99.90;;;;;;5083033;28;20071;-86
2021/01/07 13:11:58;;;;;;;0.30;0.30;;;4.20;99.90;;;;;;5086396;28;20020;-86